sensor_id;sensor_type;location;lat;lon;timestamp;P1;durP1;ratioP1;P2;durP2;ratioP2
26060;SDS011;36331;51.378;0.018;2022-10-31T00:00:40;14.25;;;4.38;;
26060;SDS011;36331;51.378;0.018;2022-10-31T00:03:12;12.68;;;4.63;;
26060;SDS011;36331;51.378;0.018;2022-10-31T00:05:49;8.57;;;3.92;;
26060;SDS011;36331;51.378;0.018;2022-10-31T00:08:28;11.38;;;4.55;;
26060;SDS011;36331;51.378;0.018;2022-10-31T00:11:01;10.10;;;4.90;;
26060;SDS011;36331;51.378;0.018;2022-10-31T00:16:51;8.20;;;4.13;;
26060;SDS011;36331;51.378;0.018;2022-10-31T00:20:16;9.50;;;3.50;;
26060;SDS011;36331;51.378;0.018;2022-10-31T00:29:24;22.77;;;5.55;;
26060;SDS011;36331;51.378;0.018;2022-10-31T00:32:29;12.00;;;5.18;;
26060;SDS011;36331;51.378;0.018;2022-10-31T00:39:30;9.57;;;4.50;;
26060;SDS011;36331;51.378;0.018;2022-10-31T00:44:42;11.38;;;4.55;;
26060;SDS011;36331;51.378;0.018;2022-10-31T00:48:01;10.75;;;3.83;;
26060;SDS011;36331;51.378;0.018;2022-10-31T00:51:06;12.15;;;4.20;;
26060;SDS011;36331;51.378;0.018;2022-10-31T00:53:58;11.23;;;4.25;;
26060;SDS011;36331;51.378;0.018;2022-10-31T00:57:20;10.07;;;3.30;;
26060;SDS011;36331;51.378;0.018;2022-10-31T00:59:50;9.20;;;4.00;;
26060;SDS011;36331;51.378;0.018;2022-10-31T01:02:23;8.18;;;3.40;;
26060;SDS011;36331;51.378;0.018;2022-10-31T01:04:53;10.70;;;3.40;;
26060;SDS011;36331;51.378;0.018;2022-10-31T01:07:23;8.25;;;3.83;;
26060;SDS011;36331;51.378;0.018;2022-10-31T01:09:55;11.82;;;3.63;;
26060;SDS011;36331;51.378;0.018;2022-10-31T01:12:29;7.95;;;4.15;;
26060;SDS011;36331;51.378;0.018;2022-10-31T01:15:03;10.82;;;4.00;;
26060;SDS011;36331;51.378;0.018;2022-10-31T01:21:28;8.80;;;3.33;;
26060;SDS011;36331;51.378;0.018;2022-10-31T01:24:27;12.20;;;3.72;;
26060;SDS011;36331;51.378;0.018;2022-10-31T01:27:35;9.10;;;3.60;;
26060;SDS011;36331;51.378;0.018;2022-10-31T01:34:28;13.73;;;4.32;;
26060;SDS011;36331;51.378;0.018;2022-10-31T01:41:27;12.82;;;4.30;;
26060;SDS011;36331;51.378;0.018;2022-10-31T01:47:13;10.98;;;3.75;;
26060;SDS011;36331;51.378;0.018;2022-10-31T01:50:13;12.15;;;3.50;;
26060;SDS011;36331;51.378;0.018;2022-10-31T01:53:22;9.55;;;3.20;;
26060;SDS011;36331;51.378;0.018;2022-10-31T01:56:24;13.25;;;3.63;;
26060;SDS011;36331;51.378;0.018;2022-10-31T01:59:51;9.32;;;3.10;;
26060;SDS011;36331;51.378;0.018;2022-10-31T02:02:55;12.90;;;3.03;;
26060;SDS011;36331;51.378;0.018;2022-10-31T02:05:46;6.85;;;3.28;;
26060;SDS011;36331;51.378;0.018;2022-10-31T02:11:50;9.82;;;3.40;;
26060;SDS011;36331;51.378;0.018;2022-10-31T02:14:55;17.38;;;4.15;;
26060;SDS011;36331;51.378;0.018;2022-10-31T02:17:34;8.13;;;2.95;;
26060;SDS011;36331;51.378;0.018;2022-10-31T02:40:51;7.73;;;4.03;;
26060;SDS011;36331;51.378;0.018;2022-10-31T02:44:29;9.20;;;2.83;;
26060;SDS011;36331;51.378;0.018;2022-10-31T02:46:59;8.90;;;3.42;;
26060;SDS011;36331;51.378;0.018;2022-10-31T02:50:25;8.77;;;4.18;;
26060;SDS011;36331;51.378;0.018;2022-10-31T02:54:01;13.60;;;3.63;;
26060;SDS011;36331;51.378;0.018;2022-10-31T02:56:44;10.50;;;2.90;;
26060;SDS011;36331;51.378;0.018;2022-10-31T02:59:15;10.38;;;4.13;;
26060;SDS011;36331;51.378;0.018;2022-10-31T03:02:03;10.95;;;3.40;;
26060;SDS011;36331;51.378;0.018;2022-10-31T03:05:31;33.50;;;5.80;;
26060;SDS011;36331;51.378;0.018;2022-10-31T03:08:49;15.15;;;4.38;;
26060;SDS011;36331;51.378;0.018;2022-10-31T03:11:22;11.18;;;3.95;;
26060;SDS011;36331;51.378;0.018;2022-10-31T03:14:01;9.15;;;3.67;;
26060;SDS011;36331;51.378;0.018;2022-10-31T03:17:08;17.13;;;4.25;;
26060;SDS011;36331;51.378;0.018;2022-10-31T03:19:53;10.77;;;3.67;;
26060;SDS011;36331;51.378;0.018;2022-10-31T03:22:53;9.45;;;3.38;;
26060;SDS011;36331;51.378;0.018;2022-10-31T03:25:54;11.70;;;3.75;;
26060;SDS011;36331;51.378;0.018;2022-10-31T03:28:44;9.05;;;2.67;;
26060;SDS011;36331;51.378;0.018;2022-10-31T03:31:27;14.80;;;3.40;;
26060;SDS011;36331;51.378;0.018;2022-10-31T03:34:48;13.07;;;3.40;;
26060;SDS011;36331;51.378;0.018;2022-10-31T03:37:51;12.30;;;3.40;;
26060;SDS011;36331;51.378;0.018;2022-10-31T03:40:31;12.25;;;3.63;;
26060;SDS011;36331;51.378;0.018;2022-10-31T03:43:33;10.35;;;3.78;;
26060;SDS011;36331;51.378;0.018;2022-10-31T03:47:05;9.65;;;3.05;;
26060;SDS011;36331;51.378;0.018;2022-10-31T03:50:40;9.55;;;3.92;;
26060;SDS011;36331;51.378;0.018;2022-10-31T03:53:29;10.18;;;3.58;;
26060;SDS011;36331;51.378;0.018;2022-10-31T03:59:38;11.98;;;3.13;;
26060;SDS011;36331;51.378;0.018;2022-10-31T04:03:06;13.30;;;3.58;;
26060;SDS011;36331;51.378;0.018;2022-10-31T04:06:04;14.23;;;4.05;;
26060;SDS011;36331;51.378;0.018;2022-10-31T04:08:42;12.32;;;3.90;;
26060;SDS011;36331;51.378;0.018;2022-10-31T04:11:40;11.90;;;3.15;;
26060;SDS011;36331;51.378;0.018;2022-10-31T04:14:34;15.60;;;3.47;;
26060;SDS011;36331;51.378;0.018;2022-10-31T04:17:23;12.70;;;2.75;;
26060;SDS011;36331;51.378;0.018;2022-10-31T04:21:00;16.20;;;4.05;;
26060;SDS011;36331;51.378;0.018;2022-10-31T04:23:48;9.02;;;3.42;;
26060;SDS011;36331;51.378;0.018;2022-10-31T04:26:24;22.98;;;4.70;;
26060;SDS011;36331;51.378;0.018;2022-10-31T04:28:57;12.02;;;3.90;;
26060;SDS011;36331;51.378;0.018;2022-10-31T04:32:02;11.18;;;4.82;;
26060;SDS011;36331;51.378;0.018;2022-10-31T04:34:56;17.00;;;3.75;;
26060;SDS011;36331;51.378;0.018;2022-10-31T04:38:00;9.73;;;3.95;;
26060;SDS011;36331;51.378;0.018;2022-10-31T04:40:57;11.27;;;3.22;;
26060;SDS011;36331;51.378;0.018;2022-10-31T04:43:59;15.40;;;3.55;;
26060;SDS011;36331;51.378;0.018;2022-10-31T04:46:37;11.65;;;3.50;;
26060;SDS011;36331;51.378;0.018;2022-10-31T04:49:25;15.57;;;4.53;;
26060;SDS011;36331;51.378;0.018;2022-10-31T04:52:13;13.25;;;3.17;;
26060;SDS011;36331;51.378;0.018;2022-10-31T04:58:14;16.73;;;3.60;;
26060;SDS011;36331;51.378;0.018;2022-10-31T05:00:52;13.50;;;3.95;;
26060;SDS011;36331;51.378;0.018;2022-10-31T05:03:35;22.48;;;4.05;;
26060;SDS011;36331;51.378;0.018;2022-10-31T05:06:27;17.23;;;4.32;;
26060;SDS011;36331;51.378;0.018;2022-10-31T05:09:08;14.95;;;4.32;;
26060;SDS011;36331;51.378;0.018;2022-10-31T05:14:52;14.85;;;4.20;;
26060;SDS011;36331;51.378;0.018;2022-10-31T05:17:47;23.90;;;3.45;;
26060;SDS011;36331;51.378;0.018;2022-10-31T05:21:03;13.93;;;3.63;;
26060;SDS011;36331;51.378;0.018;2022-10-31T05:23:51;9.15;;;3.55;;
26060;SDS011;36331;51.378;0.018;2022-10-31T05:26:42;17.08;;;5.68;;
26060;SDS011;36331;51.378;0.018;2022-10-31T05:29:46;20.10;;;5.03;;
26060;SDS011;36331;51.378;0.018;2022-10-31T05:32:30;25.25;;;3.65;;
26060;SDS011;36331;51.378;0.018;2022-10-31T05:35:21;12.70;;;3.83;;
26060;SDS011;36331;51.378;0.018;2022-10-31T05:38:23;12.10;;;3.28;;
26060;SDS011;36331;51.378;0.018;2022-10-31T05:41:36;15.77;;;3.60;;
26060;SDS011;36331;51.378;0.018;2022-10-31T05:47:54;14.52;;;3.85;;
26060;SDS011;36331;51.378;0.018;2022-10-31T05:50:51;20.63;;;4.18;;
26060;SDS011;36331;51.378;0.018;2022-10-31T05:53:32;14.45;;;4.47;;
26060;SDS011;36331;51.378;0.018;2022-10-31T05:56:06;11.70;;;3.78;;
26060;SDS011;36331;51.378;0.018;2022-10-31T05:58:40;18.63;;;5.22;;
26060;SDS011;36331;51.378;0.018;2022-10-31T06:01:34;21.02;;;4.75;;
26060;SDS011;36331;51.378;0.018;2022-10-31T06:04:18;16.83;;;3.78;;
26060;SDS011;36331;51.378;0.018;2022-10-31T06:06:49;11.38;;;4.03;;
26060;SDS011;36331;51.378;0.018;2022-10-31T06:09:22;15.98;;;4.45;;
26060;SDS011;36331;51.378;0.018;2022-10-31T06:11:53;16.55;;;4.57;;
26060;SDS011;36331;51.378;0.018;2022-10-31T06:14:28;14.88;;;4.07;;
26060;SDS011;36331;51.378;0.018;2022-10-31T06:17:02;19.50;;;4.15;;
26060;SDS011;36331;51.378;0.018;2022-10-31T06:20:09;30.60;;;5.63;;
26060;SDS011;36331;51.378;0.018;2022-10-31T06:23:01;15.82;;;4.88;;
26060;SDS011;36331;51.378;0.018;2022-10-31T06:26:01;19.48;;;6.05;;
26060;SDS011;36331;51.378;0.018;2022-10-31T06:28:38;13.40;;;4.60;;
26060;SDS011;36331;51.378;0.018;2022-10-31T06:31:50;16.03;;;3.77;;
26060;SDS011;36331;51.378;0.018;2022-10-31T06:34:52;15.77;;;4.72;;
26060;SDS011;36331;51.378;0.018;2022-10-31T06:40:30;14.35;;;4.03;;
26060;SDS011;36331;51.378;0.018;2022-10-31T06:43:56;13.30;;;5.00;;
26060;SDS011;36331;51.378;0.018;2022-10-31T06:47:00;12.45;;;4.00;;
26060;SDS011;36331;51.378;0.018;2022-10-31T06:50:17;22.25;;;5.50;;
26060;SDS011;36331;51.378;0.018;2022-10-31T06:53:11;16.67;;;3.90;;
26060;SDS011;36331;51.378;0.018;2022-10-31T06:56:07;13.93;;;3.75;;
26060;SDS011;36331;51.378;0.018;2022-10-31T06:58:52;15.05;;;4.50;;
26060;SDS011;36331;51.378;0.018;2022-10-31T07:02:11;17.33;;;3.67;;
26060;SDS011;36331;51.378;0.018;2022-10-31T07:04:43;29.10;;;4.80;;
26060;SDS011;36331;51.378;0.018;2022-10-31T07:07:39;23.60;;;5.80;;
26060;SDS011;36331;51.378;0.018;2022-10-31T07:10:30;20.38;;;4.70;;
26060;SDS011;36331;51.378;0.018;2022-10-31T07:13:16;17.35;;;5.00;;
26060;SDS011;36331;51.378;0.018;2022-10-31T07:16:28;17.88;;;5.35;;
26060;SDS011;36331;51.378;0.018;2022-10-31T07:19:31;18.30;;;5.20;;
26060;SDS011;36331;51.378;0.018;2022-10-31T07:22:23;13.63;;;4.32;;
26060;SDS011;36331;51.378;0.018;2022-10-31T07:28:05;12.02;;;4.68;;
26060;SDS011;36331;51.378;0.018;2022-10-31T07:34:45;14.52;;;4.70;;
26060;SDS011;36331;51.378;0.018;2022-10-31T07:40:23;13.38;;;4.70;;
26060;SDS011;36331;51.378;0.018;2022-10-31T07:41:11;16.90;;;4.68;;
26060;SDS011;36331;51.378;0.018;2022-10-31T07:44:00;13.10;;;5.57;;
26060;SDS011;36331;51.378;0.018;2022-10-31T07:46:52;18.35;;;5.20;;
26060;SDS011;36331;51.378;0.018;2022-10-31T07:58:22;13.85;;;5.95;;
26060;SDS011;36331;51.378;0.018;2022-10-31T08:00:58;27.35;;;7.63;;
26060;SDS011;36331;51.378;0.018;2022-10-31T08:03:46;19.67;;;8.63;;
26060;SDS011;36331;51.378;0.018;2022-10-31T08:06:44;23.88;;;8.10;;
26060;SDS011;36331;51.378;0.018;2022-10-31T08:09:30;18.67;;;7.70;;
26060;SDS011;36331;51.378;0.018;2022-10-31T08:12:11;25.60;;;9.38;;
26060;SDS011;36331;51.378;0.018;2022-10-31T08:18:19;20.85;;;7.40;;
26060;SDS011;36331;51.378;0.018;2022-10-31T08:20:58;15.32;;;5.40;;
26060;SDS011;36331;51.378;0.018;2022-10-31T08:23:38;17.85;;;5.88;;
26060;SDS011;36331;51.378;0.018;2022-10-31T08:26:08;17.60;;;4.75;;
26060;SDS011;36331;51.378;0.018;2022-10-31T08:28:37;23.70;;;5.95;;
26060;SDS011;36331;51.378;0.018;2022-10-31T08:31:12;18.85;;;4.70;;
26060;SDS011;36331;51.378;0.018;2022-10-31T08:34:08;12.00;;;4.25;;
26060;SDS011;36331;51.378;0.018;2022-10-31T08:37:01;8.82;;;3.15;;
26060;SDS011;36331;51.378;0.018;2022-10-31T08:39:40;16.15;;;3.45;;
26060;SDS011;36331;51.378;0.018;2022-10-31T08:42:15;16.40;;;4.03;;
26060;SDS011;36331;51.378;0.018;2022-10-31T08:44:51;10.55;;;4.57;;
26060;SDS011;36331;51.378;0.018;2022-10-31T08:50:55;14.82;;;3.88;;
26060;SDS011;36331;51.378;0.018;2022-10-31T08:53:30;13.77;;;3.25;;
26060;SDS011;36331;51.378;0.018;2022-10-31T08:56:29;22.08;;;5.00;;
26060;SDS011;36331;51.378;0.018;2022-10-31T08:59:00;13.98;;;4.28;;
26060;SDS011;36331;51.378;0.018;2022-10-31T09:01:41;13.80;;;3.28;;
26060;SDS011;36331;51.378;0.018;2022-10-31T09:04:11;12.30;;;3.67;;
26060;SDS011;36331;51.378;0.018;2022-10-31T09:06:52;8.23;;;3.30;;
26060;SDS011;36331;51.378;0.018;2022-10-31T09:09:49;10.98;;;2.60;;
26060;SDS011;36331;51.378;0.018;2022-10-31T09:12:25;7.90;;;2.70;;
26060;SDS011;36331;51.378;0.018;2022-10-31T09:15:38;9.07;;;3.20;;
26060;SDS011;36331;51.378;0.018;2022-10-31T09:18:37;18.45;;;3.40;;
26060;SDS011;36331;51.378;0.018;2022-10-31T09:21:15;12.55;;;2.60;;
26060;SDS011;36331;51.378;0.018;2022-10-31T09:23:53;17.05;;;2.75;;
26060;SDS011;36331;51.378;0.018;2022-10-31T09:26:28;12.32;;;2.63;;
26060;SDS011;36331;51.378;0.018;2022-10-31T09:29:07;12.32;;;2.22;;
26060;SDS011;36331;51.378;0.018;2022-10-31T09:32:00;14.73;;;2.63;;
26060;SDS011;36331;51.378;0.018;2022-10-31T09:34:40;9.05;;;2.10;;
26060;SDS011;36331;51.378;0.018;2022-10-31T09:37:16;7.40;;;2.42;;
26060;SDS011;36331;51.378;0.018;2022-10-31T09:39:48;8.90;;;2.80;;
26060;SDS011;36331;51.378;0.018;2022-10-31T09:45:32;11.10;;;2.95;;
26060;SDS011;36331;51.378;0.018;2022-10-31T09:48:25;6.00;;;1.80;;
26060;SDS011;36331;51.378;0.018;2022-10-31T09:51:13;12.95;;;3.60;;
26060;SDS011;36331;51.378;0.018;2022-10-31T09:54:00;6.78;;;2.67;;
26060;SDS011;36331;51.378;0.018;2022-10-31T09:56:41;11.88;;;2.13;;
26060;SDS011;36331;51.378;0.018;2022-10-31T09:59:16;5.90;;;1.92;;
26060;SDS011;36331;51.378;0.018;2022-10-31T10:01:53;5.75;;;1.88;;
26060;SDS011;36331;51.378;0.018;2022-10-31T10:04:31;8.25;;;1.88;;
26060;SDS011;36331;51.378;0.018;2022-10-31T10:07:53;11.95;;;1.85;;
26060;SDS011;36331;51.378;0.018;2022-10-31T10:10:53;8.98;;;2.28;;
26060;SDS011;36331;51.378;0.018;2022-10-31T10:14:08;5.90;;;1.88;;
26060;SDS011;36331;51.378;0.018;2022-10-31T10:17:10;9.25;;;2.28;;
26060;SDS011;36331;51.378;0.018;2022-10-31T10:23:13;9.52;;;1.65;;
26060;SDS011;36331;51.378;0.018;2022-10-31T10:25:53;11.43;;;2.22;;
26060;SDS011;36331;51.378;0.018;2022-10-31T10:28:41;4.05;;;1.33;;
26060;SDS011;36331;51.378;0.018;2022-10-31T10:34:19;13.43;;;2.47;;
26060;SDS011;36331;51.378;0.018;2022-10-31T10:37:00;7.03;;;2.00;;
26060;SDS011;36331;51.378;0.018;2022-10-31T10:39:33;4.38;;;1.35;;
26060;SDS011;36331;51.378;0.018;2022-10-31T10:42:15;7.20;;;1.70;;
26060;SDS011;36331;51.378;0.018;2022-10-31T10:46:48;6.60;;;1.88;;
26060;SDS011;36331;51.378;0.018;2022-10-31T10:48:44;7.53;;;2.08;;
26060;SDS011;36331;51.378;0.018;2022-10-31T10:51:22;6.28;;;2.10;;
26060;SDS011;36331;51.378;0.018;2022-10-31T10:54:17;11.60;;;1.95;;
26060;SDS011;36331;51.378;0.018;2022-10-31T10:57:18;8.32;;;2.28;;
26060;SDS011;36331;51.378;0.018;2022-10-31T10:59:51;6.97;;;1.83;;
26060;SDS011;36331;51.378;0.018;2022-10-31T11:02:22;4.93;;;1.52;;
26060;SDS011;36331;51.378;0.018;2022-10-31T11:04:53;4.20;;;1.77;;
26060;SDS011;36331;51.378;0.018;2022-10-31T11:07:38;5.07;;;1.50;;
26060;SDS011;36331;51.378;0.018;2022-10-31T11:10:12;8.05;;;2.05;;
26060;SDS011;36331;51.378;0.018;2022-10-31T11:13:04;6.57;;;1.42;;
26060;SDS011;36331;51.378;0.018;2022-10-31T11:15:55;4.53;;;1.40;;
26060;SDS011;36331;51.378;0.018;2022-10-31T11:19:14;5.43;;;1.60;;
26060;SDS011;36331;51.378;0.018;2022-10-31T11:21:49;5.45;;;1.45;;
26060;SDS011;36331;51.378;0.018;2022-10-31T11:24:27;3.35;;;1.55;;
26060;SDS011;36331;51.378;0.018;2022-10-31T11:27:05;4.40;;;1.60;;
26060;SDS011;36331;51.378;0.018;2022-10-31T11:30:03;5.22;;;1.58;;
26060;SDS011;36331;51.378;0.018;2022-10-31T11:32:51;5.75;;;1.40;;
26060;SDS011;36331;51.378;0.018;2022-10-31T11:35:24;4.97;;;1.65;;
26060;SDS011;36331;51.378;0.018;2022-10-31T11:38:22;8.18;;;2.50;;
26060;SDS011;36331;51.378;0.018;2022-10-31T11:44:27;8.73;;;1.40;;
26060;SDS011;36331;51.378;0.018;2022-10-31T11:47:14;4.13;;;1.23;;
26060;SDS011;36331;51.378;0.018;2022-10-31T11:49:49;7.90;;;1.10;;
26060;SDS011;36331;51.378;0.018;2022-10-31T11:52:22;3.55;;;1.00;;
26060;SDS011;36331;51.378;0.018;2022-10-31T11:55:13;4.63;;;0.98;;
26060;SDS011;36331;51.378;0.018;2022-10-31T11:57:47;4.63;;;0.82;;
26060;SDS011;36331;51.378;0.018;2022-10-31T12:00:26;5.10;;;1.52;;
26060;SDS011;36331;51.378;0.018;2022-10-31T12:03:10;1.48;;;0.90;;
26060;SDS011;36331;51.378;0.018;2022-10-31T12:05:50;3.67;;;0.63;;
26060;SDS011;36331;51.378;0.018;2022-10-31T12:08:21;6.32;;;2.78;;
26060;SDS011;36331;51.378;0.018;2022-10-31T12:10:55;5.28;;;2.15;;
26060;SDS011;36331;51.378;0.018;2022-10-31T12:13:30;4.90;;;2.10;;
26060;SDS011;36331;51.378;0.018;2022-10-31T12:16:07;8.30;;;3.90;;
26060;SDS011;36331;51.378;0.018;2022-10-31T12:18:51;4.07;;;1.70;;
26060;SDS011;36331;51.378;0.018;2022-10-31T12:21:30;4.95;;;1.02;;
26060;SDS011;36331;51.378;0.018;2022-10-31T12:24:16;6.13;;;0.95;;
26060;SDS011;36331;51.378;0.018;2022-10-31T12:27:00;2.00;;;0.70;;
26060;SDS011;36331;51.378;0.018;2022-10-31T12:29:37;3.00;;;0.70;;
26060;SDS011;36331;51.378;0.018;2022-10-31T12:32:19;3.40;;;1.05;;
26060;SDS011;36331;51.378;0.018;2022-10-31T12:35:01;5.00;;;0.80;;
26060;SDS011;36331;51.378;0.018;2022-10-31T12:37:52;3.47;;;0.90;;
26060;SDS011;36331;51.378;0.018;2022-10-31T12:40:30;3.75;;;0.65;;
26060;SDS011;36331;51.378;0.018;2022-10-31T12:43:06;2.35;;;0.77;;
26060;SDS011;36331;51.378;0.018;2022-10-31T12:45:49;2.65;;;1.23;;
26060;SDS011;36331;51.378;0.018;2022-10-31T12:51:11;6.45;;;1.58;;
26060;SDS011;36331;51.378;0.018;2022-10-31T12:53:47;3.10;;;1.33;;
26060;SDS011;36331;51.378;0.018;2022-10-31T12:56:30;4.57;;;1.50;;
26060;SDS011;36331;51.378;0.018;2022-10-31T12:59:10;3.95;;;1.10;;
26060;SDS011;36331;51.378;0.018;2022-10-31T13:01:45;6.25;;;1.83;;
26060;SDS011;36331;51.378;0.018;2022-10-31T13:04:18;6.43;;;2.28;;
26060;SDS011;36331;51.378;0.018;2022-10-31T13:06:51;8.02;;;1.35;;
26060;SDS011;36331;51.378;0.018;2022-10-31T13:09:24;6.22;;;1.38;;
26060;SDS011;36331;51.378;0.018;2022-10-31T13:11:56;4.68;;;1.30;;
26060;SDS011;36331;51.378;0.018;2022-10-31T13:14:28;5.30;;;1.90;;
26060;SDS011;36331;51.378;0.018;2022-10-31T13:17:01;6.80;;;1.63;;
26060;SDS011;36331;51.378;0.018;2022-10-31T13:19:33;5.40;;;1.85;;
26060;SDS011;36331;51.378;0.018;2022-10-31T13:22:08;6.28;;;1.40;;
26060;SDS011;36331;51.378;0.018;2022-10-31T13:24:39;3.35;;;1.17;;
26060;SDS011;36331;51.378;0.018;2022-10-31T13:27:15;2.65;;;1.20;;
26060;SDS011;36331;51.378;0.018;2022-10-31T13:29:52;5.35;;;1.30;;
26060;SDS011;36331;51.378;0.018;2022-10-31T13:32:23;3.47;;;0.93;;
26060;SDS011;36331;51.378;0.018;2022-10-31T13:34:55;1.80;;;0.70;;
26060;SDS011;36331;51.378;0.018;2022-10-31T13:37:29;2.88;;;1.20;;
26060;SDS011;36331;51.378;0.018;2022-10-31T13:40:10;2.85;;;1.02;;
26060;SDS011;36331;51.378;0.018;2022-10-31T13:42:45;3.10;;;0.93;;
26060;SDS011;36331;51.378;0.018;2022-10-31T13:45:19;1.42;;;0.60;;
26060;SDS011;36331;51.378;0.018;2022-10-31T13:47:56;3.63;;;1.00;;
26060;SDS011;36331;51.378;0.018;2022-10-31T13:50:27;2.08;;;0.90;;
26060;SDS011;36331;51.378;0.018;2022-10-31T13:53:22;4.72;;;1.35;;
26060;SDS011;36331;51.378;0.018;2022-10-31T13:56:13;3.88;;;1.55;;
26060;SDS011;36331;51.378;0.018;2022-10-31T13:58:53;3.60;;;0.93;;
26060;SDS011;36331;51.378;0.018;2022-10-31T14:01:26;3.53;;;1.00;;
26060;SDS011;36331;51.378;0.018;2022-10-31T14:04:02;6.78;;;2.08;;
26060;SDS011;36331;51.378;0.018;2022-10-31T14:06:43;5.28;;;1.38;;
26060;SDS011;36331;51.378;0.018;2022-10-31T14:09:23;2.13;;;0.85;;
26060;SDS011;36331;51.378;0.018;2022-10-31T14:11:54;4.07;;;1.50;;
26060;SDS011;36331;51.378;0.018;2022-10-31T14:14:26;1.60;;;0.73;;
26060;SDS011;36331;51.378;0.018;2022-10-31T14:16:58;1.38;;;0.98;;
26060;SDS011;36331;51.378;0.018;2022-10-31T14:19:28;4.97;;;1.13;;
26060;SDS011;36331;51.378;0.018;2022-10-31T14:21:58;2.65;;;0.95;;
26060;SDS011;36331;51.378;0.018;2022-10-31T14:24:36;1.48;;;0.85;;
26060;SDS011;36331;51.378;0.018;2022-10-31T14:29:50;1.98;;;0.80;;
26060;SDS011;36331;51.378;0.018;2022-10-31T14:32:23;3.90;;;1.08;;
26060;SDS011;36331;51.378;0.018;2022-10-31T14:34:53;5.75;;;1.65;;
26060;SDS011;36331;51.378;0.018;2022-10-31T14:37:39;7.43;;;2.28;;
26060;SDS011;36331;51.378;0.018;2022-10-31T14:40:20;8.13;;;1.52;;
26060;SDS011;36331;51.378;0.018;2022-10-31T14:43:06;3.10;;;1.23;;
26060;SDS011;36331;51.378;0.018;2022-10-31T14:45:44;4.95;;;1.45;;
26060;SDS011;36331;51.378;0.018;2022-10-31T14:48:36;8.02;;;1.30;;
26060;SDS011;36331;51.378;0.018;2022-10-31T14:51:13;3.97;;;1.52;;
26060;SDS011;36331;51.378;0.018;2022-10-31T14:53:45;3.95;;;1.27;;
26060;SDS011;36331;51.378;0.018;2022-10-31T14:56:19;4.38;;;1.98;;
26060;SDS011;36331;51.378;0.018;2022-10-31T14:58:51;4.18;;;1.90;;
26060;SDS011;36331;51.378;0.018;2022-10-31T15:01:23;3.70;;;1.52;;
26060;SDS011;36331;51.378;0.018;2022-10-31T15:03:57;2.85;;;1.13;;
26060;SDS011;36331;51.378;0.018;2022-10-31T15:06:50;6.25;;;1.38;;
26060;SDS011;36331;51.378;0.018;2022-10-31T15:09:21;4.50;;;1.52;;
26060;SDS011;36331;51.378;0.018;2022-10-31T15:11:57;3.85;;;1.38;;
26060;SDS011;36331;51.378;0.018;2022-10-31T15:14:44;5.85;;;1.73;;
26060;SDS011;36331;51.378;0.018;2022-10-31T15:17:15;7.25;;;1.33;;
26060;SDS011;36331;51.378;0.018;2022-10-31T15:19:45;3.97;;;2.13;;
26060;SDS011;36331;51.378;0.018;2022-10-31T15:22:17;2.95;;;1.33;;
26060;SDS011;36331;51.378;0.018;2022-10-31T15:24:51;4.15;;;1.35;;
26060;SDS011;36331;51.378;0.018;2022-10-31T15:27:25;4.07;;;1.50;;
26060;SDS011;36331;51.378;0.018;2022-10-31T15:30:17;6.57;;;2.58;;
26060;SDS011;36331;51.378;0.018;2022-10-31T15:32:52;6.80;;;2.42;;
26060;SDS011;36331;51.378;0.018;2022-10-31T15:35:53;7.75;;;1.90;;
26060;SDS011;36331;51.378;0.018;2022-10-31T15:38:23;2.42;;;1.50;;
26060;SDS011;36331;51.378;0.018;2022-10-31T15:40:59;7.38;;;2.50;;
26060;SDS011;36331;51.378;0.018;2022-10-31T15:43:32;6.53;;;2.17;;
26060;SDS011;36331;51.378;0.018;2022-10-31T15:46:06;5.03;;;2.15;;
26060;SDS011;36331;51.378;0.018;2022-10-31T15:48:37;3.15;;;1.33;;
26060;SDS011;36331;51.378;0.018;2022-10-31T15:51:07;6.30;;;2.03;;
26060;SDS011;36331;51.378;0.018;2022-10-31T15:53:38;5.18;;;1.77;;
26060;SDS011;36331;51.378;0.018;2022-10-31T15:56:12;5.45;;;1.83;;
26060;SDS011;36331;51.378;0.018;2022-10-31T15:58:44;5.07;;;1.88;;
26060;SDS011;36331;51.378;0.018;2022-10-31T16:01:24;5.00;;;1.88;;
26060;SDS011;36331;51.378;0.018;2022-10-31T16:04:05;3.95;;;1.80;;
26060;SDS011;36331;51.378;0.018;2022-10-31T16:06:34;6.72;;;2.10;;
26060;SDS011;36331;51.378;0.018;2022-10-31T16:09:04;4.45;;;2.45;;
26060;SDS011;36331;51.378;0.018;2022-10-31T16:11:47;6.32;;;3.03;;
26060;SDS011;36331;51.378;0.018;2022-10-31T16:14:21;3.80;;;2.30;;
26060;SDS011;36331;51.378;0.018;2022-10-31T16:16:52;6.20;;;2.90;;
26060;SDS011;36331;51.378;0.018;2022-10-31T16:19:23;3.95;;;2.08;;
26060;SDS011;36331;51.378;0.018;2022-10-31T16:21:54;3.92;;;1.92;;
26060;SDS011;36331;51.378;0.018;2022-10-31T16:24:25;4.45;;;2.15;;
26060;SDS011;36331;51.378;0.018;2022-10-31T16:26:57;6.75;;;2.75;;
26060;SDS011;36331;51.378;0.018;2022-10-31T16:29:36;8.05;;;3.17;;
26060;SDS011;36331;51.378;0.018;2022-10-31T16:34:59;6.55;;;2.38;;
26060;SDS011;36331;51.378;0.018;2022-10-31T16:37:32;7.00;;;3.15;;
26060;SDS011;36331;51.378;0.018;2022-10-31T16:40:01;4.57;;;2.67;;
26060;SDS011;36331;51.378;0.018;2022-10-31T16:42:31;7.32;;;3.30;;
26060;SDS011;36331;51.378;0.018;2022-10-31T16:45:02;6.43;;;2.97;;
26060;SDS011;36331;51.378;0.018;2022-10-31T16:47:34;6.03;;;3.45;;
26060;SDS011;36331;51.378;0.018;2022-10-31T16:50:05;11.27;;;3.53;;
26060;SDS011;36331;51.378;0.018;2022-10-31T16:52:35;5.68;;;3.10;;
26060;SDS011;36331;51.378;0.018;2022-10-31T16:55:25;5.10;;;3.28;;
26060;SDS011;36331;51.378;0.018;2022-10-31T16:57:55;8.77;;;4.07;;
26060;SDS011;36331;51.378;0.018;2022-10-31T17:00:32;6.10;;;2.88;;
26060;SDS011;36331;51.378;0.018;2022-10-31T17:03:03;8.32;;;3.80;;
26060;SDS011;36331;51.378;0.018;2022-10-31T17:05:35;7.22;;;4.30;;
26060;SDS011;36331;51.378;0.018;2022-10-31T17:08:10;9.65;;;5.10;;
26060;SDS011;36331;51.378;0.018;2022-10-31T17:10:40;6.63;;;3.65;;
26060;SDS011;36331;51.378;0.018;2022-10-31T17:13:15;4.25;;;2.92;;
26060;SDS011;36331;51.378;0.018;2022-10-31T17:15:49;9.27;;;4.28;;
26060;SDS011;36331;51.378;0.018;2022-10-31T17:18:20;8.27;;;3.63;;
26060;SDS011;36331;51.378;0.018;2022-10-31T17:20:54;8.18;;;4.00;;
26060;SDS011;36331;51.378;0.018;2022-10-31T17:23:27;10.18;;;4.22;;
26060;SDS011;36331;51.378;0.018;2022-10-31T17:25:59;11.43;;;5.22;;
26060;SDS011;36331;51.378;0.018;2022-10-31T17:28:33;13.25;;;6.90;;
26060;SDS011;36331;51.378;0.018;2022-10-31T17:31:06;11.73;;;6.80;;
26060;SDS011;36331;51.378;0.018;2022-10-31T17:33:38;12.52;;;7.15;;
26060;SDS011;36331;51.378;0.018;2022-10-31T17:36:10;10.63;;;6.18;;
26060;SDS011;36331;51.378;0.018;2022-10-31T17:38:47;15.48;;;7.18;;
26060;SDS011;36331;51.378;0.018;2022-10-31T17:41:17;10.75;;;6.25;;
26060;SDS011;36331;51.378;0.018;2022-10-31T17:43:47;11.88;;;6.30;;
26060;SDS011;36331;51.378;0.018;2022-10-31T17:46:23;11.53;;;6.67;;
26060;SDS011;36331;51.378;0.018;2022-10-31T17:48:56;13.18;;;8.15;;
26060;SDS011;36331;51.378;0.018;2022-10-31T17:51:35;12.23;;;7.05;;
26060;SDS011;36331;51.378;0.018;2022-10-31T17:54:08;16.23;;;8.15;;
26060;SDS011;36331;51.378;0.018;2022-10-31T17:56:43;13.73;;;8.23;;
26060;SDS011;36331;51.378;0.018;2022-10-31T17:59:20;13.27;;;9.23;;
26060;SDS011;36331;51.378;0.018;2022-10-31T18:01:53;13.77;;;8.63;;
26060;SDS011;36331;51.378;0.018;2022-10-31T18:04:25;19.60;;;9.57;;
26060;SDS011;36331;51.378;0.018;2022-10-31T18:06:56;15.40;;;9.88;;
26060;SDS011;36331;51.378;0.018;2022-10-31T18:09:33;18.25;;;10.23;;
26060;SDS011;36331;51.378;0.018;2022-10-31T18:14:33;19.92;;;11.80;;
26060;SDS011;36331;51.378;0.018;2022-10-31T18:17:06;19.73;;;11.05;;
26060;SDS011;36331;51.378;0.018;2022-10-31T18:19:36;15.75;;;10.90;;